Duco, Kentucky
Current Conditions -  °F | °C
As of 4:53 AM on Saturday 29 Nov 2014 (Local Time) from KJKL Reporting Station
Overcast Overcast  
Wind Chill: 36°   Ceiling: 5000
Heat Index: 36°   Visibility: 10mi
Dew Point: 19°   Wind: 3mph
Humidity: 50%   Direction: 210°SSW
Pressure: 30.13"   Gusts: NA
Location:  37.7261°N, 83.0786°W
Report Text: KJKL 290953Z AUTO 21003KT 10SM OVC050 02/M07 A3013 RMK AO2 SLP210 T00221072
Loading
Personal Weather Stations






























Interactive Weather Map New forecast layout! Learn more

10-Day Weather Forecast

Advertisements
Track Severe Weather on mobile